createdAt,value
2022-10-17T00:01:48.193Z,19.50
2022-10-17T00:04:19.138Z,22.75
2022-10-17T00:06:50.068Z,23.00
2022-10-17T00:09:20.894Z,24.25
2022-10-17T00:11:52.264Z,22.75
2022-10-17T00:14:22.474Z,24.25
2022-10-17T00:16:53.322Z,21.50
2022-10-17T00:19:24.326Z,24.25
2022-10-17T00:21:54.448Z,26.75
2022-10-17T00:24:24.666Z,27.00
2022-10-17T00:26:56.470Z,28.25
2022-10-17T00:29:27.686Z,32.00
2022-10-17T00:31:59.101Z,30.25
2022-10-17T00:34:30.334Z,31.75
2022-10-17T00:37:00.573Z,30.75
2022-10-17T00:39:31.585Z,28.00
2022-10-17T00:42:02.180Z,27.00
2022-10-17T00:44:35.750Z,28.25
2022-10-17T00:47:09.112Z,28.00
2022-10-17T00:49:41.053Z,29.25
2022-10-17T00:52:14.228Z,25.00
2022-10-17T00:54:47.361Z,28.25
2022-10-17T00:57:19.166Z,21.00
2022-10-17T00:59:52.341Z,25.25
2022-10-17T01:02:23.556Z,25.50
2022-10-17T01:04:56.533Z,22.00
2022-10-17T01:07:33.152Z,16.50
2022-10-17T01:10:01.712Z,11.75
2022-10-17T01:12:54.885Z,10.75
2022-10-17T01:15:49.215Z,12.75
2022-10-17T01:18:43.819Z,21.00
2022-10-17T01:21:35.646Z,24.50
2022-10-17T01:24:14.656Z,24.25
2022-10-17T01:27:06.588Z,30.00
2022-10-17T01:30:03.287Z,28.75
2022-10-17T01:35:27.738Z,31.50
2022-10-17T01:38:03.398Z,36.75
2022-10-17T01:40:45.653Z,39.25
2022-10-17T01:43:27.311Z,35.50
2022-10-17T01:46:15.569Z,34.00
2022-10-17T01:48:46.984Z,27.75
2022-10-17T01:51:20.135Z,31.50
2022-10-17T01:53:56.396Z,41.25
2022-10-17T01:56:29.577Z,41.25
2022-10-17T01:59:02.823Z,40.00
2022-10-17T02:01:36.518Z,40.00
2022-10-17T02:04:09.513Z,42.75
2022-10-17T02:06:39.829Z,41.00
2022-10-17T02:09:40.262Z,36.00
2022-10-17T02:12:42.126Z,40.75
2022-10-17T02:15:30.540Z,45.75
2022-10-17T02:18:06.424Z,67.00
2022-10-17T02:20:51.292Z,77.00
2022-10-17T02:23:33.450Z,69.75
2022-10-17T02:26:09.840Z,53.75
2022-10-17T02:28:43.690Z,43.25
2022-10-17T02:31:19.635Z,41.75
2022-10-17T02:33:53.613Z,40.25
2022-10-17T02:36:27.035Z,41.00
2022-10-17T02:38:59.402Z,41.75
2022-10-17T02:41:31.666Z,38.50
2022-10-17T02:44:05.340Z,38.00
2022-10-17T02:46:38.027Z,42.00
2022-10-17T02:49:19.634Z,41.75
2022-10-17T02:52:04.390Z,40.75
2022-10-17T02:54:46.543Z,41.00
2022-10-17T02:57:40.123Z,49.00
2022-10-17T03:00:17.880Z,80.25
2022-10-17T03:02:50.943Z,75.25
2022-10-17T03:05:26.079Z,72.75
2022-10-17T03:07:56.864Z,70.00
2022-10-17T03:10:27.039Z,46.75
2022-10-17T03:12:57.862Z,46.50
2022-10-17T03:15:28.081Z,53.50
2022-10-17T03:18:00.133Z,59.50
2022-10-17T03:20:30.705Z,54.25
2022-10-17T03:23:02.019Z,51.25
2022-10-17T03:25:32.447Z,45.75
2022-10-17T03:28:02.809Z,48.75
2022-10-17T03:30:33.913Z,44.75
2022-10-17T03:33:04.299Z,38.00
2022-10-17T03:35:34.472Z,37.50
2022-10-17T03:38:04.853Z,33.50
2022-10-17T03:40:35.197Z,27.25
2022-10-17T03:43:05.579Z,25.00
2022-10-17T03:45:36.110Z,23.50
2022-10-17T03:48:06.976Z,25.25
2022-10-17T03:50:37.245Z,22.00
2022-10-17T03:53:07.526Z,23.00
2022-10-17T03:55:38.966Z,20.50
2022-10-17T03:58:10.124Z,19.75
2022-10-17T04:00:40.514Z,19.75
2022-10-17T04:03:16.271Z,20.25
2022-10-17T04:05:43.217Z,21.25
2022-10-17T04:08:13.902Z,22.50
2022-10-17T04:10:45.562Z,23.25
2022-10-17T04:13:15.886Z,22.50
2022-10-17T04:16:00.960Z,22.75
2022-10-17T04:18:32.098Z,22.50
2022-10-17T04:21:04.017Z,21.75
2022-10-17T04:23:36.395Z,18.00
2022-10-17T04:26:07.537Z,22.00
2022-10-17T04:31:12.759Z,24.75
2022-10-17T04:33:43.323Z,19.50
2022-10-17T04:36:16.604Z,24.25
2022-10-17T04:38:47.757Z,24.75
2022-10-17T04:41:19.762Z,23.00
2022-10-17T04:43:51.408Z,23.75
2022-10-17T04:46:21.840Z,32.25
2022-10-17T04:48:53.843Z,32.00
2022-10-17T04:51:26.596Z,31.25
2022-10-17T04:53:57.636Z,29.25
2022-10-17T04:56:27.994Z,44.50
2022-10-17T04:58:59.997Z,61.50
2022-10-17T05:01:30.542Z,34.75
2022-10-17T05:04:00.877Z,40.25
2022-10-17T05:06:31.579Z,61.25
2022-10-17T05:09:01.936Z,62.00
2022-10-17T05:11:32.497Z,39.50
2022-10-17T05:14:03.803Z,54.25
2022-10-17T05:16:35.678Z,45.00
2022-10-17T05:19:06.902Z,76.25
2022-10-17T05:21:38.251Z,65.50
2022-10-17T05:24:10.372Z,55.75
2022-10-17T05:26:41.340Z,53.25
2022-10-17T05:29:12.399Z,60.25
2022-10-17T05:31:42.924Z,55.25
2022-10-17T05:34:14.410Z,22.00
2022-10-17T05:36:44.721Z,17.75
2022-10-17T05:39:15.147Z,12.25
2022-10-17T05:41:45.974Z,12.00
2022-10-17T05:44:17.186Z,13.00
2022-10-17T05:47:08.003Z,13.25
2022-10-17T05:49:46.434Z,14.50
2022-10-17T05:52:11.240Z,8.50
2022-10-17T05:54:41.439Z,13.00
2022-10-17T05:57:11.716Z,11.00
2022-10-17T05:59:42.234Z,21.25
2022-10-17T06:02:19.534Z,19.25
2022-10-17T06:04:54.718Z,27.50
2022-10-17T06:07:26.117Z,27.00
2022-10-17T06:09:56.945Z,28.00
2022-10-17T06:12:27.474Z,29.50
2022-10-17T06:14:58.127Z,30.75
2022-10-17T06:17:29.106Z,29.25
2022-10-17T06:19:59.505Z,28.75
2022-10-17T06:22:30.627Z,29.75
2022-10-17T06:25:02.887Z,31.50
2022-10-17T06:27:36.117Z,29.50
2022-10-17T06:30:09.455Z,29.75
2022-10-17T06:32:40.774Z,29.75
2022-10-17T06:35:14.598Z,29.75
2022-10-17T06:37:46.604Z,27.75
2022-10-17T06:40:16.994Z,27.75
2022-10-17T06:42:49.542Z,28.75
2022-10-17T06:45:19.984Z,29.25
2022-10-17T06:47:50.375Z,28.75
2022-10-17T06:50:20.930Z,27.00
2022-10-17T06:52:53.582Z,27.50
2022-10-17T06:55:26.419Z,28.75
2022-10-17T06:57:58.771Z,29.00
2022-10-17T07:00:29.523Z,27.00
2022-10-17T07:03:00.904Z,28.50
2022-10-17T07:05:31.341Z,28.75
2022-10-17T07:08:02.353Z,27.25
2022-10-17T07:10:32.871Z,27.25
2022-10-17T07:13:05.579Z,25.00
2022-10-17T07:15:37.005Z,29.00
2022-10-17T07:18:07.819Z,29.00
2022-10-17T07:20:40.492Z,29.00
2022-10-17T07:23:13.758Z,28.75
2022-10-17T07:25:47.647Z,28.50
2022-10-17T07:28:18.711Z,27.75
2022-10-17T07:30:52.094Z,28.50
2022-10-17T07:33:22.522Z,29.00
2022-10-17T07:35:52.883Z,24.00
2022-10-17T07:38:23.217Z,28.00
2022-10-17T07:41:02.136Z,29.75
2022-10-17T07:43:35.877Z,26.50
2022-10-17T07:46:06.518Z,27.50
2022-10-17T07:48:36.739Z,23.00
2022-10-17T07:51:09.619Z,10.75
2022-10-17T07:53:42.686Z,24.00
2022-10-17T07:56:14.067Z,24.60
2022-10-17T07:58:44.434Z,23.80
2022-10-17T08:01:15.724Z,22.20
2022-10-17T08:03:48.581Z,23.20
2022-10-17T08:06:19.182Z,21.20
2022-10-17T08:08:49.503Z,22.20
2022-10-17T08:11:21.380Z,20.20
2022-10-17T08:13:52.663Z,22.00
2022-10-17T08:16:24.845Z,13.20
2022-10-17T08:18:56.037Z,20.40
2022-10-17T08:21:26.994Z,20.40
2022-10-17T08:23:57.891Z,20.80
2022-10-17T08:26:31.446Z,21.60
2022-10-17T08:29:02.406Z,23.60
2022-10-17T08:31:34.130Z,21.20
2022-10-17T08:34:04.474Z,24.40
2022-10-17T08:36:35.294Z,21.00
2022-10-17T08:39:06.085Z,23.80
2022-10-17T08:41:57.040Z,21.60
2022-10-17T08:44:39.287Z,18.00
2022-10-17T08:47:32.506Z,15.00
2022-10-17T08:50:35.087Z,17.20
2022-10-17T08:53:38.272Z,12.60
2022-10-17T08:56:19.568Z,12.40
2022-10-17T09:05:17.095Z,11.00
2022-10-17T09:08:10.985Z,12.60
2022-10-17T09:11:02.312Z,12.40
2022-10-17T09:14:05.156Z,11.20
2022-10-17T09:17:11.464Z,13.60
2022-10-17T09:19:45.267Z,9.00
2022-10-17T09:22:24.748Z,10.60
2022-10-17T09:25:00.734Z,8.60
2022-10-17T09:27:48.867Z,8.60
2022-10-17T09:30:46.506Z,9.60
2022-10-17T09:33:35.243Z,9.20
2022-10-17T09:35:55.042Z,7.60
2022-10-17T09:38:28.225Z,9.60
2022-10-17T09:41:01.582Z,7.20
2022-10-17T09:43:32.003Z,7.00
2022-10-17T09:46:05.518Z,8.00
2022-10-17T09:48:42.193Z,11.20
2022-10-17T09:51:22.015Z,10.20
2022-10-17T09:53:57.799Z,9.60
2022-10-17T09:56:28.096Z,9.20
2022-10-17T09:58:59.431Z,9.80
2022-10-17T10:01:31.676Z,9.00
2022-10-17T10:04:14.090Z,9.00
2022-10-17T10:07:07.085Z,7.60
2022-10-17T10:09:40.484Z,5.60
2022-10-17T10:12:17.798Z,7.20
2022-10-17T10:14:52.179Z,8.00
2022-10-17T10:17:39.027Z,6.60
2022-10-17T10:20:30.214Z,7.40
2022-10-17T10:23:15.873Z,6.00
2022-10-17T10:25:52.254Z,8.80
2022-10-17T10:28:34.343Z,8.00
2022-10-17T10:31:07.882Z,7.60
2022-10-17T10:33:41.754Z,9.20
2022-10-17T10:36:12.264Z,12.20
2022-10-17T10:38:42.691Z,3.20
2022-10-17T10:41:20.826Z,11.00
2022-10-17T10:43:53.280Z,7.20
2022-10-17T10:46:28.684Z,8.20
2022-10-17T10:49:01.435Z,8.40
2022-10-17T10:51:41.565Z,8.00
2022-10-17T10:54:23.039Z,7.00
2022-10-17T10:56:56.800Z,6.00
2022-10-17T10:59:41.896Z,7.00
2022-10-17T11:02:15.089Z,6.40
2022-10-17T11:05:09.669Z,7.40
2022-10-17T11:07:45.648Z,11.60
2022-10-17T11:10:19.205Z,12.80
2022-10-17T11:16:22.818Z,11.40
2022-10-17T11:19:02.526Z,10.00
2022-10-17T11:22:03.301Z,9.20
2022-10-17T11:27:54.860Z,13.00
2022-10-17T11:30:28.493Z,8.40
2022-10-17T11:33:03.393Z,10.40
2022-10-17T11:35:53.627Z,10.40
2022-10-17T11:38:45.157Z,9.20
2022-10-17T11:41:30.349Z,5.80
2022-10-17T11:44:20.290Z,10.00
2022-10-17T11:46:53.548Z,11.80
2022-10-17T11:49:39.869Z,8.80
2022-10-17T11:52:18.549Z,7.40
2022-10-17T11:54:54.921Z,7.40
2022-10-17T11:57:46.483Z,10.80
2022-10-17T12:00:32.430Z,13.00
2022-10-17T12:03:21.276Z,8.00
2022-10-17T12:06:22.888Z,9.40
2022-10-17T12:09:18.891Z,10.40
2022-10-17T12:11:58.621Z,8.80
2022-10-17T12:14:54.441Z,6.40
2022-10-17T12:17:43.099Z,9.60
2022-10-17T12:20:25.544Z,10.00
2022-10-17T12:26:11.235Z,10.00
2022-10-17T12:28:47.470Z,11.40
2022-10-17T12:31:22.819Z,9.80
2022-10-17T12:34:10.525Z,9.40
2022-10-17T12:36:41.231Z,7.80
2022-10-17T12:39:14.446Z,9.40
2022-10-17T12:41:49.443Z,7.00
2022-10-17T12:44:24.835Z,11.80
2022-10-17T12:47:08.058Z,9.80
2022-10-17T12:49:41.753Z,7.60
2022-10-17T12:52:34.146Z,8.60
2022-10-17T12:57:59.406Z,10.60
2022-10-17T13:00:35.785Z,11.60
2022-10-17T13:03:27.794Z,7.80
2022-10-17T13:06:01.068Z,9.40
2022-10-17T13:08:43.014Z,7.40
2022-10-17T13:11:11.862Z,10.20
2022-10-17T13:13:48.644Z,9.40
2022-10-17T13:16:36.983Z,9.00
2022-10-17T13:19:17.462Z,10.20
2022-10-17T13:22:01.030Z,11.25
2022-10-17T13:24:55.120Z,9.50
2022-10-17T13:27:31.909Z,9.00
2022-10-17T13:30:30.933Z,11.00
2022-10-17T13:32:59.843Z,9.00
2022-10-17T13:38:09.934Z,9.50
2022-10-17T13:40:50.117Z,10.00
2022-10-17T13:43:20.013Z,9.00
2022-10-17T13:46:09.124Z,8.75
2022-10-17T13:48:39.255Z,10.00
2022-10-17T13:51:11.123Z,7.75
2022-10-17T13:53:42.491Z,10.75
2022-10-17T13:56:29.504Z,9.25
2022-10-17T13:59:01.327Z,9.25
2022-10-17T14:01:32.607Z,11.00
2022-10-17T14:04:09.527Z,9.25
2022-10-17T14:06:37.099Z,10.75
2022-10-17T14:09:10.158Z,9.50
2022-10-17T14:11:43.850Z,10.25
2022-10-17T14:14:23.332Z,12.25
2022-10-17T14:16:54.496Z,10.00
2022-10-17T14:19:31.171Z,11.00
2022-10-17T14:22:19.829Z,10.75
2022-10-17T14:24:51.613Z,12.00
2022-10-17T14:27:40.244Z,8.50
2022-10-17T14:30:55.181Z,8.50
2022-10-17T14:33:10.167Z,9.25
2022-10-17T14:35:55.391Z,10.75
2022-10-17T14:38:46.275Z,10.00
2022-10-17T14:41:44.658Z,11.50
2022-10-17T14:44:01.872Z,11.75
2022-10-17T14:46:36.834Z,12.00
2022-10-17T14:49:10.081Z,9.25
2022-10-17T14:51:50.646Z,10.50
2022-10-17T14:54:27.167Z,15.00
2022-10-17T14:56:57.529Z,14.75
2022-10-17T14:59:52.929Z,13.25
2022-10-17T15:02:00.838Z,16.00
2022-10-17T15:04:31.166Z,15.50
2022-10-17T15:07:01.590Z,13.50
2022-10-17T15:09:33.952Z,13.25
2022-10-17T15:12:09.700Z,11.50
2022-10-17T15:14:40.344Z,10.75
2022-10-17T15:20:09.199Z,11.00
2022-10-17T15:22:39.653Z,11.75
2022-10-17T15:25:14.564Z,15.00
2022-10-17T15:28:06.075Z,12.00
2022-10-17T15:30:38.506Z,13.75
2022-10-17T15:33:09.563Z,13.25
2022-10-17T15:35:40.602Z,10.50
2022-10-17T15:39:02.749Z,13.75
2022-10-17T15:40:49.571Z,13.75
2022-10-17T15:43:25.126Z,14.00
2022-10-17T15:46:00.480Z,13.00
2022-10-17T15:48:35.638Z,11.25
2022-10-17T15:54:21.324Z,12.50
2022-10-17T15:57:00.500Z,14.25
2022-10-17T15:59:34.912Z,12.25
2022-10-17T16:02:12.090Z,13.00
2022-10-17T16:04:47.384Z,10.00
2022-10-17T16:07:27.122Z,16.50
2022-10-17T16:09:59.166Z,18.00
2022-10-17T16:12:34.959Z,17.50
2022-10-17T16:15:02.596Z,12.25
2022-10-17T16:17:33.352Z,12.50
2022-10-17T16:20:04.332Z,14.75
2022-10-17T16:22:46.710Z,14.00
2022-10-17T16:25:41.607Z,15.00
2022-10-17T16:28:14.801Z,14.50
2022-10-17T16:30:46.524Z,8.50
2022-10-17T16:36:24.987Z,16.00
2022-10-17T16:38:56.735Z,16.25
2022-10-17T16:41:32.988Z,17.75
2022-10-17T16:44:08.899Z,15.00
2022-10-17T16:46:39.309Z,16.75
2022-10-17T16:49:10.975Z,13.75
2022-10-17T16:51:41.873Z,14.75
2022-10-17T16:54:13.894Z,13.00
2022-10-17T16:56:53.484Z,14.00
2022-10-17T16:59:25.837Z,16.00
2022-10-17T17:01:58.904Z,20.50
2022-10-17T17:04:35.724Z,15.25
2022-10-17T17:07:06.428Z,16.25
2022-10-17T17:09:38.789Z,18.75
2022-10-17T17:12:10.724Z,13.75
2022-10-17T17:14:43.757Z,15.25
2022-10-17T17:17:37.065Z,14.00
2022-10-17T17:19:54.358Z,14.25
2022-10-17T17:22:28.261Z,16.25
2022-10-17T17:25:01.187Z,15.00
2022-10-17T17:27:55.335Z,17.25
2022-10-17T17:47:47.802Z,14.75
2022-10-17T17:51:41.272Z,19.00
2022-10-17T17:53:31.479Z,19.25
2022-10-17T17:56:30.836Z,17.75
2022-10-17T18:02:34.566Z,17.00
2022-10-17T18:05:23.259Z,19.00
2022-10-17T18:07:43.231Z,21.00
2022-10-17T18:10:16.696Z,21.75
2022-10-17T18:13:55.857Z,20.00
2022-10-17T18:16:10.306Z,12.75
2022-10-17T18:18:58.793Z,18.50
2022-10-17T18:21:40.138Z,20.75
2022-10-17T18:24:11.536Z,20.50
2022-10-17T18:26:44.744Z,20.50
2022-10-17T18:29:27.358Z,19.25
2022-10-17T18:32:00.346Z,21.00
2022-10-17T18:34:31.160Z,17.25
2022-10-17T18:37:03.751Z,18.50
2022-10-17T18:39:34.299Z,21.25
2022-10-17T18:42:08.023Z,19.50
2022-10-17T18:44:55.261Z,18.75
2022-10-17T18:47:23.659Z,19.75
2022-10-17T18:49:54.157Z,15.25
2022-10-17T18:52:29.577Z,22.25
2022-10-17T18:55:15.761Z,22.25
2022-10-17T18:57:51.870Z,24.25
2022-10-17T19:00:26.719Z,25.25
2022-10-17T19:02:57.676Z,23.75
2022-10-17T19:19:46.946Z,24.25
2022-10-17T19:22:30.060Z,27.50
2022-10-17T19:25:06.093Z,27.75
2022-10-17T19:27:42.106Z,24.25
2022-10-17T19:30:14.171Z,24.25
2022-10-17T19:32:50.151Z,27.25
2022-10-17T19:35:22.157Z,28.50
2022-10-17T19:37:53.219Z,29.25
2022-10-17T19:40:23.775Z,25.00
2022-10-17T19:42:54.556Z,26.25
2022-10-17T19:45:30.333Z,27.00
2022-10-17T19:48:07.204Z,27.25
2022-10-17T19:50:48.178Z,28.50
2022-10-17T19:53:24.998Z,27.25
2022-10-17T19:56:16.166Z,26.00
2022-10-17T19:58:57.693Z,29.25
2022-10-17T20:01:43.455Z,27.25
2022-10-17T20:04:54.749Z,33.75
2022-10-17T20:07:36.064Z,33.00
2022-10-17T20:13:29.591Z,30.00
2022-10-17T20:16:00.256Z,15.25
2022-10-17T20:18:36.966Z,35.00
2022-10-17T20:21:11.446Z,35.00
2022-10-17T20:23:43.526Z,31.50
2022-10-17T20:28:54.013Z,39.25
2022-10-17T20:31:39.134Z,38.25
2022-10-17T20:34:18.318Z,39.25
2022-10-17T20:36:52.118Z,39.25
2022-10-17T20:39:22.502Z,37.50
2022-10-17T20:41:54.084Z,39.00
2022-10-17T20:44:24.683Z,37.25
2022-10-17T20:47:02.040Z,36.50
2022-10-17T20:49:27.130Z,36.00
2022-10-17T20:51:58.044Z,38.25
2022-10-17T20:54:30.302Z,40.50
2022-10-17T20:57:04.807Z,37.50
2022-10-17T20:59:35.853Z,36.25
2022-10-17T21:02:06.891Z,34.00
2022-10-17T21:04:47.215Z,35.75
2022-10-17T21:07:11.136Z,38.00
2022-10-17T21:09:42.537Z,36.25
2022-10-17T21:12:25.934Z,34.25
2022-10-17T21:14:49.151Z,36.00
2022-10-17T21:17:24.303Z,36.50
2022-10-17T21:19:54.898Z,31.75
2022-10-17T21:22:25.415Z,35.25
2022-10-17T21:24:56.056Z,37.00
2022-10-17T21:27:27.853Z,34.00
2022-10-17T21:29:58.313Z,34.00
2022-10-17T21:32:40.208Z,36.00
2022-10-17T21:35:02.807Z,36.25
2022-10-17T21:37:35.339Z,37.75
2022-10-17T21:40:06.385Z,36.25
2022-10-17T21:42:38.391Z,35.25
2022-10-17T21:45:15.132Z,35.25
2022-10-17T21:47:54.883Z,36.25
2022-10-17T21:50:14.076Z,35.75
2022-10-17T21:52:45.005Z,35.25
2022-10-17T21:55:15.380Z,33.50
2022-10-17T21:57:45.611Z,31.50
2022-10-17T22:00:16.606Z,36.00
2022-10-17T22:02:46.890Z,32.25
2022-10-17T22:05:17.315Z,39.25
2022-10-17T22:07:48.629Z,44.50
2022-10-17T22:10:18.807Z,43.00
2022-10-17T22:12:49.014Z,39.25
2022-10-17T22:15:19.634Z,39.50
2022-10-17T22:17:50.579Z,42.50
2022-10-17T22:20:22.503Z,34.75
2022-10-17T22:22:53.359Z,39.00
2022-10-17T22:25:23.875Z,35.50
2022-10-17T22:27:54.335Z,36.50
2022-10-17T22:30:25.293Z,36.00
2022-10-17T22:32:56.450Z,35.25
2022-10-17T22:35:26.718Z,31.75
2022-10-17T22:37:56.938Z,35.25
2022-10-17T22:40:27.086Z,36.50
2022-10-17T22:42:58.325Z,36.50
2022-10-17T22:45:29.013Z,33.25
2022-10-17T22:47:59.630Z,36.25
2022-10-17T22:50:29.950Z,33.50
2022-10-17T22:53:01.327Z,36.25
2022-10-17T22:55:33.350Z,34.25
2022-10-17T22:58:03.814Z,35.00
2022-10-17T23:00:34.113Z,34.25
2022-10-17T23:03:04.755Z,31.25
2022-10-17T23:05:35.083Z,29.50
2022-10-17T23:08:06.099Z,33.00
2022-10-17T23:10:37.183Z,33.25
2022-10-17T23:13:08.664Z,37.50
2022-10-17T23:15:40.265Z,31.00
2022-10-17T23:18:11.124Z,38.50
2022-10-17T23:20:41.358Z,37.00
2022-10-17T23:23:12.034Z,35.25
2022-10-17T23:25:48.978Z,33.00
2022-10-17T23:28:19.505Z,33.25
2022-10-17T23:30:49.673Z,35.00
2022-10-17T23:33:20.261Z,32.25
2022-10-17T23:35:50.395Z,35.00
2022-10-17T23:38:20.590Z,37.75
2022-10-17T23:40:50.827Z,34.50
2022-10-17T23:43:20.998Z,36.75
2022-10-17T23:45:51.187Z,39.00
2022-10-17T23:48:21.770Z,37.25
2022-10-17T23:50:52.007Z,39.00
2022-10-17T23:53:23.013Z,38.00
2022-10-17T23:55:53.767Z,36.25
2022-10-17T23:58:24.046Z,39.25
